Time;durP1;ratioP1;P1;durP2;ratioP2;P2;SDS_P1;SDS_P2;PMS_P1;PMS_P2;Temp;Humidity;BMP_temperature;BMP_pressure;BME280_temperature;BME280_humidity;BME280_pressure;Samples;Min_cycle;Max_cycle;Signal;HPM_P1;HPM_P2
2022/03/15 00:01:21;;;;;;;6.00;2.92;;;;;;;19.01;43.23;102942.56;5022336;28;20045;-43
2022/03/15 00:03:48;;;;;;;7.72;3.30;;;;;;;18.99;43.26;102942.69;5020897;28;20065;-42
2022/03/15 00:06:16;;;;;;;7.82;3.40;;;;;;;18.98;42.91;102929.38;5022800;28;20111;-42
2022/03/15 00:08:44;;;;;;;7.82;3.45;;;;;;;18.97;43.20;102933.00;5024990;28;20324;-44
2022/03/15 00:11:11;;;;;;;5.35;3.22;;;;;;;18.96;43.41;102920.53;5025731;28;20131;-43
2022/03/15 00:13:39;;;;;;;7.90;3.42;;;;;;;18.93;43.27;102926.13;5021129;28;20324;-43
2022/03/15 00:16:07;;;;;;;6.88;3.25;;;;;;;18.93;43.16;102928.81;5023580;28;20049;-43
2022/03/15 00:18:34;;;;;;;4.68;3.30;;;;;;;18.91;43.16;102920.03;5022055;28;20054;-43
2022/03/15 00:21:04;;;;;;;5.32;3.25;;;;;;;18.90;43.22;102923.69;5022766;28;21179;-43
2022/03/15 00:23:31;;;;;;;4.72;2.78;;;;;;;18.90;42.86;102916.47;5020609;28;20128;-43
2022/03/15 00:26:00;;;;;;;5.68;3.20;;;;;;;18.89;43.19;102913.88;5021275;28;20047;-43
2022/03/15 00:28:26;;;;;;;6.03;3.42;;;;;;;18.88;43.01;102921.09;5025030;28;20053;-43
2022/03/15 00:30:53;;;;;;;6.88;3.42;;;;;;;18.88;43.55;102914.84;5022455;28;20511;-42
2022/03/15 00:33:20;;;;;;;5.10;2.78;;;;;;;18.86;43.20;102914.13;5024004;28;20723;-42
2022/03/15 00:35:47;;;;;;;4.65;2.88;;;;;;;18.85;43.53;102912.38;5021712;28;20132;-42
2022/03/15 00:38:14;;;;;;;6.88;3.10;;;;;;;18.84;42.83;102911.53;5022466;28;20042;-42
2022/03/15 00:40:40;;;;;;;6.40;3.47;;;;;;;18.82;43.24;102910.78;5019467;28;20050;-42
2022/03/15 00:43:07;;;;;;;5.57;2.80;;;;;;;18.84;43.21;102910.66;5023478;28;20132;-42
2022/03/15 00:45:34;;;;;;;4.38;2.78;;;;;;;18.82;43.18;102918.00;5025039;28;20140;-41
2022/03/15 00:48:00;;;;;;;5.22;3.00;;;;;;;18.80;43.29;102915.38;5025647;28;20049;-43
2022/03/15 00:50:30;;;;;;;6.03;3.08;;;;;;;18.80;43.31;102906.47;5019824;28;20119;-42
2022/03/15 00:52:59;;;;;;;7.15;2.83;;;;;;;18.78;43.32;102905.75;5022995;28;20081;-43
2022/03/15 00:55:25;;;;;;;5.63;3.03;;;;;;;18.77;43.51;102909.38;5025436;28;20041;-42
2022/03/15 00:57:52;;;;;;;6.25;3.30;;;;;;;18.77;43.14;102907.53;5024451;28;20333;-43
2022/03/15 01:00:20;;;;;;;6.32;2.92;;;;;;;18.76;43.05;102905.84;5026934;28;20045;-42
2022/03/15 01:02:48;;;;;;;6.50;3.10;;;;;;;18.74;42.95;102905.09;5027198;28;20088;-42
2022/03/15 01:05:14;;;;;;;7.45;2.53;;;;;;;18.73;43.19;102889.91;5025846;28;20124;-42
2022/03/15 01:07:41;;;;;;;5.38;2.75;;;;;;;18.72;43.11;102897.13;5026209;28;20148;-42
2022/03/15 01:10:08;;;;;;;6.43;3.33;;;;;;;18.72;42.90;102896.28;5024643;28;20084;-42
2022/03/15 01:12:34;;;;;;;5.43;2.95;;;;;;;18.70;43.43;102891.00;5027677;28;20136;-43
2022/03/15 01:15:01;;;;;;;3.90;2.60;;;;;;;18.69;42.99;102889.28;5025940;28;20051;-42
2022/03/15 01:17:28;;;;;;;5.30;2.80;;;;;;;18.69;42.83;102886.59;5026398;28;20118;-42
2022/03/15 01:19:54;;;;;;;4.97;2.83;;;;;;;18.68;43.15;102889.38;5023448;28;20156;-42
2022/03/15 01:22:21;;;;;;;7.45;2.92;;;;;;;18.68;43.22;102886.69;5025731;28;20049;-42
2022/03/15 01:24:47;;;;;;;6.60;3.30;;;;;;;18.66;43.15;102875.19;5027399;28;20051;-42
2022/03/15 01:27:15;;;;;;;5.65;2.80;;;;;;;18.68;43.11;102873.25;5028469;28;20167;-42
2022/03/15 01:29:43;;;;;;;5.13;2.90;;;;;;;18.66;43.01;102877.88;5028838;28;20133;-42
2022/03/15 01:32:09;;;;;;;6.43;3.10;;;;;;;18.64;42.93;102875.28;5025270;28;20443;-41
2022/03/15 01:34:36;;;;;;;5.18;2.65;;;;;;;18.62;43.06;102869.19;5024241;28;20033;-42
2022/03/15 01:37:02;;;;;;;5.40;2.50;;;;;;;18.62;43.16;102860.25;5026198;28;20136;-42
2022/03/15 01:39:29;;;;;;;5.38;2.72;;;;;;;18.60;42.94;102856.81;5025843;28;20128;-41
2022/03/15 01:41:57;;;;;;;4.28;2.28;;;;;;;18.60;43.28;102862.19;5023715;28;20489;-43
2022/03/15 01:44:26;;;;;;;4.80;2.67;;;;;;;18.59;42.72;102858.66;5022112;28;20169;-42
2022/03/15 01:46:53;;;;;;;6.18;2.83;;;;;;;18.59;43.01;102853.28;5025375;28;20318;-42
2022/03/15 01:49:21;;;;;;;5.43;2.80;;;;;;;18.58;42.85;102842.66;5022257;28;20050;-42
2022/03/15 01:51:47;;;;;;;5.50;2.65;;;;;;;18.58;42.95;102845.34;5028614;28;20053;-42
2022/03/15 01:54:15;;;;;;;5.55;2.47;;;;;;;18.58;43.11;102850.72;5026482;28;20051;-42
2022/03/15 01:56:42;;;;;;;4.18;2.47;;;;;;;18.57;42.74;102846.28;5026549;28;20087;-42
2022/03/15 01:59:10;;;;;;;6.57;2.80;;;;;;;18.56;42.50;102856.16;5026214;28;20132;-43
2022/03/15 02:01:37;;;;;;;6.47;2.83;;;;;;;18.55;42.98;102841.03;5023692;28;20046;-42
2022/03/15 02:04:05;;;;;;;4.88;2.75;;;;;;;18.54;42.48;102849.22;5026205;28;20047;-42
2022/03/15 02:06:35;;;;;;;5.68;2.50;;;;;;;18.55;43.13;102845.53;5026111;28;20417;-41
2022/03/15 02:09:15;;;;;;;4.47;2.25;;;;;;;18.52;42.72;102841.25;5024277;28;20126;-41
2022/03/15 02:11:43;;;;;;;6.07;2.78;;;;;;;18.53;42.61;102832.22;5025387;28;20078;-43
2022/03/15 02:14:10;;;;;;;5.20;2.50;;;;;;;18.53;42.96;102831.34;5027278;28;20041;-42
2022/03/15 02:16:37;;;;;;;4.60;2.47;;;;;;;18.53;42.58;102832.22;5022514;28;20176;-42
2022/03/15 02:19:04;;;;;;;7.68;2.97;;;;;;;18.52;42.77;102826.97;5024211;28;20720;-43
2022/03/15 02:21:31;;;;;;;5.68;2.40;;;;;;;18.53;42.94;102831.34;5024259;28;20041;-42
2022/03/15 02:23:58;;;;;;;4.85;2.17;;;;;;;18.52;42.81;102832.31;5023612;28;20501;-43
2022/03/15 02:26:25;;;;;;;5.10;2.65;;;;;;;18.51;42.73;102823.41;5023113;28;20626;-42
2022/03/15 02:28:51;;;;;;;7.25;2.67;;;;;;;18.52;42.44;102819.75;5022082;28;20512;-42
2022/03/15 02:31:19;;;;;;;4.75;2.53;;;;;;;18.51;42.92;102815.34;5021700;28;20059;-42
2022/03/15 02:33:47;;;;;;;4.93;2.65;;;;;;;18.51;42.69;102823.41;5025935;28;20448;-41
2022/03/15 02:36:15;;;;;;;4.30;2.10;;;;;;;18.50;42.51;102819.88;5023706;28;20045;-42
2022/03/15 02:38:46;;;;;;;4.78;2.75;;;;;;;18.50;42.27;102816.34;5020969;28;20045;-41
2022/03/15 02:41:14;;;;;;;5.30;2.70;;;;;;;18.49;42.75;102815.47;5026662;28;20083;-42
2022/03/15 02:43:42;;;;;;;5.25;2.40;;;;;;;18.49;42.86;102809.22;5023191;28;20077;-42
2022/03/15 02:46:09;;;;;;;4.38;2.47;;;;;;;18.48;42.61;102808.38;5023255;28;20501;-42
2022/03/15 02:48:36;;;;;;;4.53;2.28;;;;;;;18.49;42.54;102807.44;5025233;28;20045;-42
2022/03/15 02:51:10;;;;;;;5.00;2.42;;;;;;;18.49;42.37;102803.84;5021891;28;20050;-42
2022/03/15 02:53:37;;;;;;;3.05;2.10;;;;;;;18.50;42.63;102805.59;5024575;28;20060;-42
2022/03/15 02:56:10;;;;;;;4.72;2.22;;;;;;;18.49;42.66;102793.13;5024175;28;20083;-42
2022/03/15 02:58:41;;;;;;;3.92;2.45;;;;;;;18.48;42.59;102794.94;5023413;28;20056;-42
2022/03/15 03:01:08;;;;;;;5.22;2.50;;;;;;;18.49;42.55;102793.13;5024256;28;20140;-42
2022/03/15 03:03:37;;;;;;;6.60;2.40;;;;;;;18.47;42.23;102781.63;5023525;28;20085;-42
2022/03/15 03:06:04;;;;;;;3.30;2.30;;;;;;;18.48;42.46;102788.72;5023386;28;20480;-42
2022/03/15 03:08:31;;;;;;;4.72;2.40;;;;;;;18.47;42.49;102795.06;5024392;28;20045;-42
2022/03/15 03:10:58;;;;;;;3.13;2.00;;;;;;;18.48;42.82;102792.25;5024574;28;20084;-42
2022/03/15 03:13:26;;;;;;;4.45;2.28;;;;;;;18.47;42.42;102792.38;5026283;28;20115;-42
2022/03/15 03:15:54;;;;;;;4.82;2.33;;;;;;;18.46;42.41;102787.97;5023302;28;20052;-42
2022/03/15 03:18:20;;;;;;;4.93;2.70;;;;;;;18.46;42.56;102793.34;5020507;28;20045;-42
2022/03/15 03:20:47;;;;;;;4.90;2.28;;;;;;;18.45;42.50;102797.88;5021167;28;20141;-42
2022/03/15 03:23:15;;;;;;;3.28;2.13;;;;;;;18.46;42.28;102787.97;5022898;28;20049;-43
2022/03/15 03:25:42;;;;;;;5.38;2.28;;;;;;;18.45;42.17;102786.25;5027581;28;20461;-42
2022/03/15 03:28:09;;;;;;;4.47;2.55;;;;;;;18.45;42.34;102789.81;5025429;28;20056;-42
2022/03/15 03:30:37;;;;;;;5.10;2.78;;;;;;;18.44;42.51;102785.38;5025489;28;20060;-43
2022/03/15 03:33:04;;;;;;;5.43;2.92;;;;;;;18.46;42.21;102790.66;5025526;28;20057;-43
2022/03/15 03:35:30;;;;;;;5.95;2.85;;;;;;;18.46;42.46;102785.31;5021720;28;20045;-43
2022/03/15 03:37:57;;;;;;;6.05;2.88;;;;;;;18.45;42.11;102791.63;5022001;28;20450;-42
2022/03/15 03:40:23;;;;;;;5.20;2.50;;;;;;;18.44;42.45;102784.53;5021223;28;20045;-42
2022/03/15 03:42:50;;;;;;;5.38;2.95;;;;;;;18.44;42.26;102788.06;5020873;28;20092;-42
2022/03/15 03:45:16;;;;;;;4.65;3.00;;;;;;;18.43;42.19;102783.69;5021280;28;20394;-42
2022/03/15 03:47:43;;;;;;;5.03;2.92;;;;;;;18.42;42.25;102779.28;5023420;28;20058;-41
2022/03/15 03:50:10;;;;;;;6.03;2.97;;;;;;;18.41;42.16;102779.38;5024043;28;20060;-42
2022/03/15 03:52:36;;;;;;;5.68;3.08;;;;;;;18.40;42.18;102789.25;5023467;28;20095;-42
2022/03/15 03:55:03;;;;;;;6.40;3.35;;;;;;;18.40;41.94;102781.19;5024511;28;20049;-42
2022/03/15 03:57:30;;;;;;;6.63;2.58;;;;;;;18.40;42.00;102783.03;5024020;28;20160;-41
2022/03/15 03:59:57;;;;;;;4.70;3.08;;;;;;;18.40;42.34;102781.19;5024621;28;20180;-42
2022/03/15 04:02:25;;;;;;;5.72;2.95;;;;;;;18.40;42.22;102783.03;5023220;28;20049;-42
2022/03/15 04:04:54;;;;;;;5.95;3.22;;;;;;;18.39;41.97;102784.88;5019193;28;20038;-41
2022/03/15 04:07:21;;;;;;;6.00;2.90;;;;;;;18.39;41.91;102776.81;5022522;28;20508;-42
2022/03/15 04:09:47;;;;;;;4.60;2.75;;;;;;;18.40;42.14;102785.72;5021826;28;20052;-41
2022/03/15 04:12:16;;;;;;;5.07;2.85;;;;;;;18.39;42.19;102778.63;5022785;28;20045;-41
2022/03/15 04:14:43;;;;;;;5.30;2.90;;;;;;;18.38;42.00;102782.31;5022671;28;20084;-41
2022/03/15 04:17:10;;;;;;;5.60;2.95;;;;;;;18.39;42.23;102782.19;5024226;28;20057;-41
2022/03/15 04:19:36;;;;;;;4.97;2.80;;;;;;;18.38;41.76;102779.63;5022922;28;20041;-41
2022/03/15 04:22:03;;;;;;;4.28;3.05;;;;;;;18.38;42.18;102775.09;5018375;28;20064;-41
2022/03/15 04:24:31;;;;;;;7.78;3.67;;;;;;;18.38;42.06;102782.31;5021778;28;20075;-41
2022/03/15 04:26:59;;;;;;;6.45;3.30;;;;;;;18.37;42.05;102773.38;5024954;28;20050;-42
2022/03/15 04:29:26;;;;;;;6.55;3.05;;;;;;;18.38;41.85;102777.78;5028636;28;20136;-40
2022/03/15 04:31:54;;;;;;;5.95;3.15;;;;;;;18.38;41.97;102782.31;5029505;28;20053;-41
2022/03/15 04:34:21;;;;;;;9.20;3.40;;;;;;;18.38;41.75;102780.47;5027863;28;20128;-41
2022/03/15 04:36:47;;;;;;;5.07;3.10;;;;;;;18.38;41.81;102775.09;5029088;28;20049;-42
2022/03/15 04:39:14;;;;;;;6.25;3.35;;;;;;;18.38;41.95;102777.78;5026788;28;20053;-41
2022/03/15 04:41:40;;;;;;;6.57;3.53;;;;;;;18.38;41.90;102774.25;5026015;28;20059;-41
2022/03/15 04:44:07;;;;;;;7.38;3.85;;;;;;;18.38;42.03;102772.41;5026669;28;20060;-41
2022/03/15 04:46:33;;;;;;;5.50;3.10;;;;;;;18.38;42.10;102769.72;5031425;28;20049;-41
2022/03/15 04:49:00;;;;;;;5.88;3.17;;;;;;;18.38;41.75;102768.88;5028488;28;20053;-43
2022/03/15 04:51:27;;;;;;;3.90;2.50;;;;;;;18.41;42.28;102763.25;5028470;28;20049;-43
2022/03/15 04:53:54;;;;;;;7.03;3.05;;;;;;;18.44;42.04;102763.06;5030777;28;20075;-41
2022/03/15 04:56:21;;;;;;;5.85;2.95;;;;;;;18.48;41.70;102761.88;5031711;28;20132;-41
2022/03/15 04:58:48;;;;;;;5.90;2.67;;;;;;;18.54;42.15;102760.59;5029872;28;20053;-41
2022/03/15 05:01:14;;;;;;;9.43;3.28;;;;;;;18.59;42.50;102761.97;5029652;28;20051;-41
2022/03/15 05:03:41;;;;;;;4.50;2.72;;;;;;;18.66;42.31;102763.25;5028660;28;20041;-41
2022/03/15 05:06:08;;;;;;;4.35;2.15;;;;;;;18.69;42.21;102756.78;5031596;28;20041;-41
2022/03/15 05:08:34;;;;;;;4.78;2.53;;;;;;;18.73;42.02;102756.50;5030924;28;20346;-41
2022/03/15 05:11:07;;;;;;;8.25;3.25;;;;;;;18.77;41.87;102743.66;5032355;28;20142;-41
2022/03/15 05:13:42;;;;;;;5.20;2.93;;;;;;;18.82;41.80;102746.91;5029927;28;20049;-41
2022/03/15 05:16:10;;;;;;;6.30;3.38;;;;;;;18.84;41.40;102747.63;5028888;28;20570;-42
2022/03/15 05:18:38;;;;;;;6.13;3.60;;;;;;;18.87;41.81;102746.56;5027664;28;20084;-41
2022/03/15 05:21:05;;;;;;;3.50;2.70;;;;;;;18.90;41.71;102733.75;5026655;28;20037;-41
2022/03/15 05:23:31;;;;;;;7.07;3.03;;;;;;;18.93;41.62;102740.72;5028044;28;20084;-41
2022/03/15 05:25:58;;;;;;;6.90;3.28;;;;;;;18.95;41.45;102730.72;5031691;28;20041;-41
2022/03/15 05:28:24;;;;;;;4.78;2.95;;;;;;;18.96;41.62;102732.44;5029544;28;20047;-40
2022/03/15 05:30:54;;;;;;;6.45;3.42;;;;;;;18.96;41.43;102733.28;5031011;28;20042;-40
2022/03/15 05:33:21;;;;;;;5.65;2.97;;;;;;;18.95;41.58;102734.28;5031717;28;20455;-41
2022/03/15 05:35:49;;;;;;;6.80;3.05;;;;;;;18.95;41.45;102728.03;5029514;28;20136;-41
2022/03/15 05:38:15;;;;;;;6.72;3.20;;;;;;;18.94;41.86;102729.03;5028435;28;20045;-41
2022/03/15 05:40:42;;;;;;;6.82;3.05;;;;;;;18.91;41.70;102727.41;5026538;28;20140;-41
2022/03/15 05:43:09;;;;;;;6.43;3.15;;;;;;;18.88;41.87;102726.78;5021169;28;20190;-41
2022/03/15 05:45:36;;;;;;;4.90;2.88;;;;;;;18.83;41.55;102724.44;5024514;28;20095;-41
2022/03/15 05:48:03;;;;;;;5.47;2.97;;;;;;;18.80;41.99;102724.66;5026119;28;20050;-41
2022/03/15 05:50:30;;;;;;;5.93;2.90;;;;;;;18.78;41.66;102720.38;5025287;28;20076;-41
2022/03/15 05:52:57;;;;;;;5.75;3.00;;;;;;;18.74;41.67;102722.44;5027284;28;20360;-41
2022/03/15 05:55:24;;;;;;;7.05;2.90;;;;;;;18.71;41.63;102728.88;5029781;28;20042;-41
2022/03/15 05:57:50;;;;;;;8.45;3.55;;;;;;;18.69;41.88;102720.06;5027878;28;20110;-41
2022/03/15 06:00:17;;;;;;;5.00;2.75;;;;;;;18.66;41.83;102714.91;5025899;28;20128;-41
2022/03/15 06:02:44;;;;;;;5.93;3.08;;;;;;;18.65;41.63;102715.00;5025343;28;20062;-41
2022/03/15 06:05:11;;;;;;;4.60;2.97;;;;;;;18.62;42.44;102708.03;5025119;28;20061;-41
2022/03/15 06:07:52;;;;;;;5.20;3.10;;;;;;;18.59;41.87;102705.56;5024302;28;20422;-41
2022/03/15 06:10:25;;;;;;;5.72;3.17;;;;;;;18.58;42.09;102708.38;5022331;28;20285;-41
2022/03/15 06:12:52;;;;;;;6.85;3.28;;;;;;;18.58;42.03;102706.53;5026466;28;20330;-41
2022/03/15 06:15:18;;;;;;;6.28;2.88;;;;;;;18.56;42.17;102707.59;5024080;28;20153;-40
2022/03/15 06:17:48;;;;;;;4.65;3.00;;;;;;;18.54;41.86;102705.06;5022003;28;20481;-41
2022/03/15 06:20:18;;;;;;;5.53;2.70;;;;;;;18.57;41.89;102706.63;5023421;28;20136;-41
2022/03/15 06:22:46;;;;;;;5.05;3.00;;;;;;;18.56;41.88;102703.09;5024385;28;20052;-41
2022/03/15 06:25:13;;;;;;;5.32;3.08;;;;;;;18.58;41.87;102705.69;5028719;28;20175;-41
2022/03/15 06:27:44;;;;;;;5.25;3.22;;;;;;;18.57;41.89;102704.81;5024859;28;20049;-41
2022/03/15 06:30:12;;;;;;;6.40;2.60;;;;;;;18.58;41.52;102705.69;5021873;28;20057;-41
2022/03/15 06:32:39;;;;;;;7.32;3.17;;;;;;;18.58;41.91;102703.84;5023962;28;20144;-41
2022/03/15 06:35:07;;;;;;;7.95;3.53;;;;;;;18.57;41.81;102704.81;5028150;28;20049;-41
2022/03/15 06:37:39;;;;;;;5.07;2.85;;;;;;;18.56;41.87;102697.72;5026432;28;20042;-40
2022/03/15 06:40:10;;;;;;;5.50;3.00;;;;;;;18.57;41.92;102696.75;5021452;28;20045;-41
2022/03/15 06:42:38;;;;;;;7.05;3.30;;;;;;;18.57;41.56;102701.25;5022827;28;20073;-42
2022/03/15 06:45:08;;;;;;;5.63;3.25;;;;;;;18.57;41.97;102698.56;5023382;28;20054;-43
2022/03/15 06:47:36;;;;;;;4.47;2.53;;;;;;;18.57;42.05;102695.88;5020753;28;20076;-42
2022/03/15 06:50:07;;;;;;;6.22;3.20;;;;;;;18.56;41.78;102699.56;5020338;28;20092;-41
2022/03/15 06:52:35;;;;;;;6.95;3.20;;;;;;;18.55;41.67;102693.31;5024000;28;20066;-41
2022/03/15 06:55:03;;;;;;;5.72;3.10;;;;;;;18.55;41.39;102693.31;5024371;28;20041;-42
2022/03/15 06:57:32;;;;;;;5.35;2.80;;;;;;;18.53;41.92;102684.50;5020974;28;20437;-42
2022/03/15 07:00:00;;;;;;;7.18;2.83;;;;;;;18.53;41.41;102689.03;5020876;28;20183;-41
2022/03/15 07:02:27;;;;;;;4.53;2.80;;;;;;;18.53;41.80;102683.66;5022328;28;20073;-41
2022/03/15 07:04:54;;;;;;;4.45;2.88;;;;;;;18.52;41.80;102682.81;5017726;28;20346;-42
2022/03/15 07:07:21;;;;;;;4.97;3.00;;;;;;;18.53;41.39;102689.88;5018015;28;20445;-42
2022/03/15 07:09:48;;;;;;;4.43;2.90;;;;;;;18.52;41.84;102679.25;5020684;28;20046;-41
2022/03/15 07:12:15;;;;;;;7.47;3.17;;;;;;;18.49;41.61;102683.03;5027112;28;20048;-41
2022/03/15 07:14:43;;;;;;;6.28;3.55;;;;;;;18.49;41.58;102680.34;5019611;28;20056;-41
2022/03/15 07:17:10;;;;;;;5.20;3.38;;;;;;;18.48;41.52;102675.94;5022367;28;20076;-41
2022/03/15 07:19:36;;;;;;;6.07;2.53;;;;;;;18.48;41.48;102673.25;5020360;28;20068;-41
2022/03/15 07:22:05;;;;;;;4.82;2.67;;;;;;;18.47;41.81;102677.78;5022559;28;20050;-41
2022/03/15 07:24:36;;;;;;;5.05;2.70;;;;;;;18.46;41.77;102675.22;5021852;28;20160;-41
2022/03/15 07:27:03;;;;;;;6.25;3.50;;;;;;;18.46;41.60;102678.75;5021796;28;20037;-42
2022/03/15 07:29:29;;;;;;;6.50;3.33;;;;;;;18.45;41.78;102681.53;5021014;28;20328;-41
2022/03/15 07:31:57;;;;;;;5.65;3.08;;;;;;;18.44;41.79;102677.13;5019261;28;20060;-41
2022/03/15 07:34:23;;;;;;;5.60;3.13;;;;;;;18.46;42.04;102677.91;5021969;28;20060;-41
2022/03/15 07:36:50;;;;;;;5.05;3.00;;;;;;;18.46;42.04;102681.44;5023018;28;20077;-41
2022/03/15 07:39:17;;;;;;;6.68;3.08;;;;;;;18.46;41.83;102678.75;5023078;28;20184;-41
2022/03/15 07:41:44;;;;;;;4.70;2.67;;;;;;;18.47;41.88;102671.53;5021505;28;20198;-41
2022/03/15 07:44:11;;;;;;;6.32;3.20;;;;;;;18.48;41.98;102679.47;5018985;28;20064;-42
2022/03/15 07:46:40;;;;;;;5.38;3.05;;;;;;;18.46;41.90;102673.38;5021063;28;20442;-42
2022/03/15 07:49:08;;;;;;;7.97;3.28;;;;;;;18.47;41.89;102669.72;5020189;28;20275;-42
2022/03/15 07:51:35;;;;;;;5.85;2.63;;;;;;;18.48;41.55;102678.63;5021331;28;20362;-42
2022/03/15 07:54:01;;;;;;;5.03;3.67;;;;;;;18.49;41.78;102674.97;5021019;28;20136;-43
2022/03/15 07:56:28;;;;;;;6.65;3.55;;;;;;;18.49;41.79;102672.28;5024695;28;21096;-43
2022/03/15 07:58:54;;;;;;;6.55;3.30;;;;;;;18.49;41.73;102680.34;5021683;28;20051;-42
2022/03/15 08:01:21;;;;;;;6.00;2.92;;;;;;;18.49;41.82;102686.59;5023279;28;20052;-42
2022/03/15 08:03:48;;;;;;;5.07;3.10;;;;;;;18.50;41.72;102684.75;5021867;28;20545;-42
2022/03/15 08:06:15;;;;;;;5.00;2.85;;;;;;;18.50;41.18;102682.94;5021892;28;20083;-41
2022/03/15 08:08:42;;;;;;;5.50;3.30;;;;;;;18.49;41.53;102683.91;5020814;28;20053;-41
2022/03/15 08:11:09;;;;;;;4.40;2.97;;;;;;;18.51;41.47;102694.53;5020048;28;20069;-42
2022/03/15 08:13:35;;;;;;;5.40;3.17;;;;;;;18.52;41.59;102681.94;5021211;28;20140;-42
2022/03/15 08:16:03;;;;;;;6.30;3.47;;;;;;;18.52;41.74;102680.13;5021628;28;20053;-42
2022/03/15 08:18:30;;;;;;;4.57;3.15;;;;;;;18.53;41.36;102680.97;5020054;28;20056;-42
2022/03/15 08:20:59;;;;;;;6.97;3.33;;;;;;;18.52;41.12;102680.13;5021894;28;20057;-42
2022/03/15 08:23:29;;;;;;;5.68;3.17;;;;;;;18.52;41.19;102672.06;5019941;28;20148;-42
2022/03/15 08:25:56;;;;;;;5.95;3.30;;;;;;;18.52;41.18;102677.44;5019870;28;20049;-42
2022/03/15 08:28:24;;;;;;;7.65;3.20;;;;;;;18.52;41.27;102677.44;5023192;28;20053;-43
2022/03/15 08:30:54;;;;;;;6.10;3.22;;;;;;;18.52;41.19;102676.56;5019314;28;20477;-41
2022/03/15 08:33:23;;;;;;;6.57;3.15;;;;;;;18.52;41.43;102674.75;5018059;28;20053;-41
2022/03/15 08:35:49;;;;;;;9.90;4.53;;;;;;;18.53;40.97;102671.09;5017199;28;20081;-41
2022/03/15 08:38:16;;;;;;;4.13;2.90;;;;;;;18.53;41.00;102672.91;5020198;28;20372;-41
2022/03/15 08:40:43;;;;;;;7.70;3.55;;;;;;;18.52;41.38;102673.91;5021125;28;20061;-42
2022/03/15 08:43:10;;;;;;;4.78;3.40;;;;;;;18.52;41.46;102677.44;5022411;28;20053;-42
2022/03/15 08:45:37;;;;;;;9.10;3.95;;;;;;;18.53;41.20;102671.09;5020617;28;20053;-42
2022/03/15 08:48:06;;;;;;;7.07;4.05;;;;;;;18.54;40.91;102664.75;5022845;28;20068;-41
2022/03/15 08:50:33;;;;;;;9.20;4.13;;;;;;;18.54;41.09;102680.88;5021833;28;20037;-42
2022/03/15 08:52:59;;;;;;;6.32;3.92;;;;;;;18.53;40.63;102676.44;5016960;28;20081;-41
2022/03/15 08:55:27;;;;;;;6.13;2.95;;;;;;;18.54;40.99;102669.28;5024916;28;20042;-41
2022/03/15 08:57:55;;;;;;;6.78;3.60;;;;;;;18.54;40.57;102664.75;5025302;28;20084;-41
2022/03/15 09:00:22;;;;;;;5.75;3.67;;;;;;;18.54;40.84;102663.91;5021628;28;20080;-42
2022/03/15 09:02:49;;;;;;;7.00;3.10;;;;;;;18.54;40.62;102656.72;5025850;28;20042;-42
2022/03/15 09:05:19;;;;;;;5.95;3.80;;;;;;;18.54;40.58;102650.50;5020726;28;20088;-42
2022/03/15 09:07:51;;;;;;;8.10;3.30;;;;;;;18.54;40.93;102656.72;5019661;28;20038;-42
2022/03/15 09:10:22;;;;;;;6.63;3.42;;;;;;;18.54;40.46;102648.66;5020829;28;20140;-42
2022/03/15 09:12:49;;;;;;;8.93;3.88;;;;;;;18.55;40.53;102647.69;5019821;28;20581;-41
2022/03/15 09:15:17;;;;;;;5.60;3.25;;;;;;;18.56;40.63;102648.53;5022696;28;20442;-42
2022/03/15 09:17:43;;;;;;;6.20;3.33;;;;;;;18.56;40.77;102649.38;5024069;28;20040;-41
2022/03/15 09:20:22;;;;;;;6.97;3.35;;;;;;;18.57;40.57;102655.59;5025233;28;20082;-41
2022/03/15 09:22:48;;;;;;;8.48;3.20;;;;;;;18.56;40.99;102649.38;5026202;28;20052;-41
2022/03/15 09:25:15;;;;;;;5.18;3.05;;;;;;;18.58;40.98;102649.28;5023797;28;20159;-42
2022/03/15 09:27:42;;;;;;;5.95;3.05;;;;;;;18.59;40.75;102649.16;5023182;28;20046;-41
2022/03/15 09:30:09;;;;;;;4.55;3.08;;;;;;;18.60;40.94;102644.66;5019851;28;20038;-42
2022/03/15 09:32:35;;;;;;;5.30;3.17;;;;;;;18.61;40.65;102649.03;5023854;28;20099;-42
2022/03/15 09:35:02;;;;;;;8.45;2.85;;;;;;;18.62;40.94;102642.72;5024147;28;20052;-41
2022/03/15 09:37:29;;;;;;;5.72;3.22;;;;;;;18.62;40.36;102646.25;5027155;28;20051;-41
2022/03/15 09:39:57;;;;;;;4.65;2.80;;;;;;;18.64;40.44;102646.13;5021529;28;20418;-41
2022/03/15 09:42:28;;;;;;;6.82;2.85;;;;;;;18.64;40.36;102641.63;5023353;28;20184;-41
2022/03/15 09:44:57;;;;;;;6.72;2.88;;;;;;;18.67;40.48;102646.75;5020303;28;20077;-41
2022/03/15 09:47:25;;;;;;;5.20;2.55;;;;;;;18.68;40.74;102640.41;5023970;28;20037;-41
2022/03/15 09:49:53;;;;;;;5.65;3.10;;;;;;;18.69;40.36;102641.28;5022752;28;20050;-40
2022/03/15 09:52:21;;;;;;;6.00;2.90;;;;;;;18.69;40.51;102639.47;5020836;28;20042;-40
2022/03/15 09:54:48;;;;;;;9.80;3.28;;;;;;;18.70;40.41;102637.66;5025616;28;20140;-40
2022/03/15 09:57:14;;;;;;;6.03;2.65;;;;;;;18.71;40.69;102640.22;5024206;28;20121;-40
2022/03/15 09:59:41;;;;;;;6.90;3.08;;;;;;;18.73;40.46;102629.34;5023456;28;20081;-40
2022/03/15 10:02:08;;;;;;;5.55;3.42;;;;;;;18.74;40.53;102631.09;5022493;28;20131;-40
2022/03/15 10:04:34;;;;;;;7.20;2.70;;;;;;;18.76;40.52;102628.28;5020686;28;20046;-40
2022/03/15 10:07:01;;;;;;;5.72;2.95;;;;;;;18.76;40.23;102623.75;5021785;28;20128;-40
2022/03/15 10:09:28;;;;;;;6.28;3.45;;;;;;;18.78;40.09;102620.97;5020143;28;20411;-40
2022/03/15 10:11:55;;;;;;;8.38;3.42;;;;;;;18.79;40.48;102622.69;5023972;28;20045;-40
2022/03/15 10:14:22;;;;;;;8.85;3.30;;;;;;;18.81;39.85;102618.03;5022001;28;20057;-41
2022/03/15 10:16:50;;;;;;;4.68;2.90;;;;;;;18.82;39.75;102606.34;5020550;28;20033;-41
2022/03/15 10:19:18;;;;;;;5.72;3.20;;;;;;;18.82;40.20;102600.97;5020129;28;20100;-40
2022/03/15 10:21:54;;;;;;;9.32;3.08;;;;;;;18.83;40.07;102600.84;5022828;28;20068;-40
2022/03/15 10:24:27;;;;;;;6.32;2.65;;;;;;;18.83;40.27;102595.47;5024278;28;20140;-41
2022/03/15 10:26:56;;;;;;;4.10;2.72;;;;;;;18.85;39.59;102593.50;5017350;28;20053;-39
2022/03/15 10:29:27;;;;;;;5.20;2.85;;;;;;;18.87;40.03;102593.41;5020168;28;20437;-41
2022/03/15 10:31:54;;;;;;;5.53;3.00;;;;;;;18.88;40.04;102581.69;5020930;28;20421;-41
2022/03/15 10:34:22;;;;;;;8.43;3.20;;;;;;;18.89;40.10;102581.56;5018977;28;20133;-41
2022/03/15 10:36:54;;;;;;;4.07;2.40;;;;;;;18.88;39.91;102577.16;5023145;28;20125;-41
2022/03/15 10:39:20;;;;;;;5.10;2.67;;;;;;;18.90;39.82;102566.31;5023955;28;20051;-41
2022/03/15 10:41:52;;;;;;;5.53;2.78;;;;;;;18.90;40.07;102566.31;5023413;28;20418;-41
2022/03/15 10:44:22;;;;;;;5.03;3.10;;;;;;;18.91;40.10;102568.88;5017087;28;20077;-41
2022/03/15 10:47:14;;;;;;;4.60;2.47;;;;;;;18.92;39.70;102564.34;5024380;28;20401;-41
2022/03/15 10:49:56;;;;;;;6.07;2.85;;;;;;;18.92;39.96;102561.66;5028340;28;20349;-39
2022/03/15 10:52:40;;;;;;;5.35;2.80;;;;;;;18.94;39.50;102565.09;5022813;28;20053;-41
2022/03/15 10:55:15;;;;;;;;;;;;;;;18.94;39.68;102562.41;5026749;28;20417;-41
2022/03/15 10:57:56;;;;;;;5.03;2.72;;;;;;;18.97;39.56;102556.78;5018464;28;20061;-41
2022/03/15 11:00:25;;;;;;;6.63;2.60;;;;;;;18.97;39.92;102551.41;5019069;28;20149;-41
2022/03/15 11:02:53;;;;;;;7.03;2.83;;;;;;;18.97;39.49;102552.28;5022524;28;20411;-41
2022/03/15 11:05:38;;;;;;;7.53;2.90;;;;;;;18.99;39.57;102542.28;5019232;28;20038;-41
2022/03/15 11:08:05;;;;;;;6.07;2.88;;;;;;;19.03;39.53;102537.53;5022204;28;20080;-41
2022/03/15 11:10:33;;;;;;;6.65;3.08;;;;;;;19.05;39.97;102540.06;5019625;28;20128;-41
2022/03/15 11:13:09;;;;;;;6.57;2.90;;;;;;;19.09;39.59;102536.19;5019449;28;20128;-42
2022/03/15 11:15:53;;;;;;;5.68;2.75;;;;;;;19.13;39.53;102525.06;5021763;28;20077;-41
2022/03/15 11:18:19;;;;;;;4.70;2.75;;;;;;;19.17;39.64;102526.53;5022662;28;20060;-42
2022/03/15 11:20:48;;;;;;;5.53;2.92;;;;;;;19.20;39.81;102526.28;5021321;28;20160;-42
2022/03/15 11:23:20;;;;;;;6.97;2.78;;;;;;;19.24;39.86;102516.16;5021892;28;20099;-42
2022/03/15 11:25:53;;;;;;;4.45;2.72;;;;;;;19.29;40.09;102518.47;5018290;28;20053;-42
2022/03/15 11:28:28;;;;;;;5.63;2.72;;;;;;;19.32;39.93;102512.88;5020186;28;20048;-42